sensor_id;sensor_type;location;lat;lon;timestamp;P1;durP1;ratioP1;P2;durP2;ratioP2
5702;SDS011;2876;51.738;10.050;2023-01-26T00:05:07;6.50;;;4.90;;
5702;SDS011;2876;51.738;10.050;2023-01-26T00:11:13;7.40;;;4.93;;
5702;SDS011;2876;51.738;10.050;2023-01-26T00:17:18;8.63;;;5.67;;
5702;SDS011;2876;51.738;10.050;2023-01-26T00:23:27;9.37;;;6.60;;
5702;SDS011;2876;51.738;10.050;2023-01-26T00:29:32;8.97;;;6.53;;
5702;SDS011;2876;51.738;10.050;2023-01-26T00:35:34;11.30;;;6.90;;
5702;SDS011;2876;51.738;10.050;2023-01-26T00:41:36;10.87;;;7.83;;
5702;SDS011;2876;51.738;10.050;2023-01-26T00:47:56;23.10;;;9.97;;
5702;SDS011;2876;51.738;10.050;2023-01-26T00:53:58;20.47;;;10.43;;
5702;SDS011;2876;51.738;10.050;2023-01-26T01:00:00;22.67;;;12.10;;
5702;SDS011;2876;51.738;10.050;2023-01-26T01:06:02;21.60;;;11.27;;
5702;SDS011;2876;51.738;10.050;2023-01-26T01:12:04;19.37;;;11.23;;
5702;SDS011;2876;51.738;10.050;2023-01-26T01:18:06;18.73;;;11.30;;
5702;SDS011;2876;51.738;10.050;2023-01-26T01:24:08;21.33;;;11.53;;
5702;SDS011;2876;51.738;10.050;2023-01-26T01:30:14;20.00;;;11.50;;
5702;SDS011;2876;51.738;10.050;2023-01-26T01:36:16;20.93;;;12.57;;
5702;SDS011;2876;51.738;10.050;2023-01-26T01:42:18;21.20;;;11.10;;
5702;SDS011;2876;51.738;10.050;2023-01-26T01:54:32;22.43;;;12.10;;
5702;SDS011;2876;51.738;10.050;2023-01-26T02:01:02;20.23;;;11.90;;
5702;SDS011;2876;51.738;10.050;2023-01-26T02:07:04;17.30;;;10.03;;
5702;SDS011;2876;51.738;10.050;2023-01-26T02:13:06;20.87;;;12.70;;
5702;SDS011;2876;51.738;10.050;2023-01-26T02:19:11;19.87;;;11.30;;
5702;SDS011;2876;51.738;10.050;2023-01-26T02:31:57;23.90;;;11.77;;
5702;SDS011;2876;51.738;10.050;2023-01-26T02:37:59;28.43;;;15.40;;
5702;SDS011;2876;51.738;10.050;2023-01-26T02:44:01;24.37;;;13.27;;
5702;SDS011;2876;51.738;10.050;2023-01-26T02:50:07;28.23;;;12.60;;
5702;SDS011;2876;51.738;10.050;2023-01-26T02:56:11;23.97;;;13.87;;
5702;SDS011;2876;51.738;10.050;2023-01-26T03:02:13;26.03;;;12.83;;
5702;SDS011;2876;51.738;10.050;2023-01-26T03:08:15;25.67;;;13.97;;
5702;SDS011;2876;51.738;10.050;2023-01-26T03:14:17;28.87;;;15.50;;
5702;SDS011;2876;51.738;10.050;2023-01-26T03:20:19;27.37;;;13.20;;
5702;SDS011;2876;51.738;10.050;2023-01-26T03:26:40;34.70;;;16.17;;
5702;SDS011;2876;51.738;10.050;2023-01-26T03:33:00;31.90;;;15.80;;
5702;SDS011;2876;51.738;10.050;2023-01-26T03:39:02;29.23;;;14.50;;
5702;SDS011;2876;51.738;10.050;2023-01-26T03:45:05;30.07;;;14.80;;
5702;SDS011;2876;51.738;10.050;2023-01-26T03:51:27;33.17;;;15.80;;
5702;SDS011;2876;51.738;10.050;2023-01-26T03:57:47;28.40;;;14.47;;
5702;SDS011;2876;51.738;10.050;2023-01-26T04:03:49;37.30;;;16.03;;
5702;SDS011;2876;51.738;10.050;2023-01-26T04:10:11;32.57;;;13.67;;
5702;SDS011;2876;51.738;10.050;2023-01-26T04:16:13;42.27;;;16.07;;
5702;SDS011;2876;51.738;10.050;2023-01-26T04:22:35;41.13;;;16.23;;
5702;SDS011;2876;51.738;10.050;2023-01-26T04:28:45;39.13;;;16.33;;
5702;SDS011;2876;51.738;10.050;2023-01-26T04:34:47;47.87;;;17.47;;
5702;SDS011;2876;51.738;10.050;2023-01-26T04:40:52;42.00;;;18.00;;
5702;SDS011;2876;51.738;10.050;2023-01-26T04:46:55;43.40;;;16.93;;
5702;SDS011;2876;51.738;10.050;2023-01-26T04:52:56;49.40;;;18.37;;
5702;SDS011;2876;51.738;10.050;2023-01-26T04:59:00;45.77;;;19.47;;
5702;SDS011;2876;51.738;10.050;2023-01-26T05:05:04;49.23;;;20.10;;
5702;SDS011;2876;51.738;10.050;2023-01-26T05:11:07;48.27;;;21.30;;
5702;SDS011;2876;51.738;10.050;2023-01-26T05:17:09;51.40;;;19.77;;
5702;SDS011;2876;51.738;10.050;2023-01-26T05:23:11;55.97;;;21.40;;
5702;SDS011;2876;51.738;10.050;2023-01-26T05:29:13;54.17;;;22.43;;
5702;SDS011;2876;51.738;10.050;2023-01-26T05:35:15;51.07;;;18.67;;
5702;SDS011;2876;51.738;10.050;2023-01-26T05:41:17;49.77;;;20.17;;
5702;SDS011;2876;51.738;10.050;2023-01-26T05:47:19;52.10;;;19.20;;
5702;SDS011;2876;51.738;10.050;2023-01-26T05:53:21;53.30;;;19.90;;
5702;SDS011;2876;51.738;10.050;2023-01-26T05:59:23;62.63;;;21.17;;
5702;SDS011;2876;51.738;10.050;2023-01-26T06:05:25;49.13;;;19.63;;
5702;SDS011;2876;51.738;10.050;2023-01-26T06:11:26;42.40;;;18.77;;
5702;SDS011;2876;51.738;10.050;2023-01-26T06:17:28;48.43;;;19.97;;
5702;SDS011;2876;51.738;10.050;2023-01-26T06:23:30;44.20;;;16.80;;
5702;SDS011;2876;51.738;10.050;2023-01-26T06:29:32;37.13;;;16.43;;
5702;SDS011;2876;51.738;10.050;2023-01-26T06:35:34;39.90;;;17.33;;
5702;SDS011;2876;51.738;10.050;2023-01-26T06:41:36;47.53;;;17.07;;
5702;SDS011;2876;51.738;10.050;2023-01-26T06:47:46;36.37;;;13.90;;
5702;SDS011;2876;51.738;10.050;2023-01-26T06:53:57;49.73;;;17.27;;
5702;SDS011;2876;51.738;10.050;2023-01-26T06:59:59;41.10;;;15.00;;
5702;SDS011;2876;51.738;10.050;2023-01-26T07:06:01;48.17;;;16.20;;
5702;SDS011;2876;51.738;10.050;2023-01-26T07:12:03;51.07;;;16.07;;
5702;SDS011;2876;51.738;10.050;2023-01-26T07:18:05;44.70;;;16.07;;
5702;SDS011;2876;51.738;10.050;2023-01-26T07:24:07;48.53;;;17.50;;
5702;SDS011;2876;51.738;10.050;2023-01-26T07:30:10;51.67;;;17.47;;
5702;SDS011;2876;51.738;10.050;2023-01-26T07:36:16;50.53;;;17.60;;
5702;SDS011;2876;51.738;10.050;2023-01-26T07:42:18;42.80;;;15.60;;
5702;SDS011;2876;51.738;10.050;2023-01-26T07:48:21;52.67;;;15.57;;
5702;SDS011;2876;51.738;10.050;2023-01-26T07:54:24;43.83;;;14.47;;
5702;SDS011;2876;51.738;10.050;2023-01-26T08:00:26;45.77;;;15.90;;
5702;SDS011;2876;51.738;10.050;2023-01-26T08:06:28;34.47;;;15.43;;
5702;SDS011;2876;51.738;10.050;2023-01-26T08:12:30;42.93;;;14.40;;
5702;SDS011;2876;51.738;10.050;2023-01-26T08:18:39;46.00;;;15.60;;
5702;SDS011;2876;51.738;10.050;2023-01-26T08:24:43;38.70;;;14.33;;
5702;SDS011;2876;51.738;10.050;2023-01-26T08:30:45;37.50;;;13.87;;
5702;SDS011;2876;51.738;10.050;2023-01-26T08:36:47;35.20;;;13.17;;
5702;SDS011;2876;51.738;10.050;2023-01-26T08:42:50;31.97;;;13.60;;
5702;SDS011;2876;51.738;10.050;2023-01-26T08:48:52;38.13;;;13.20;;
5702;SDS011;2876;51.738;10.050;2023-01-26T08:54:54;22.67;;;10.87;;
5702;SDS011;2876;51.738;10.050;2023-01-26T09:00:56;27.93;;;12.37;;
5702;SDS011;2876;51.738;10.050;2023-01-26T09:06:58;23.90;;;10.63;;
5702;SDS011;2876;51.738;10.050;2023-01-26T09:13:00;30.60;;;13.20;;
5702;SDS011;2876;51.738;10.050;2023-01-26T09:19:02;25.13;;;11.83;;
5702;SDS011;2876;51.738;10.050;2023-01-26T09:25:05;26.23;;;12.20;;
5702;SDS011;2876;51.738;10.050;2023-01-26T09:31:08;24.40;;;12.20;;
5702;SDS011;2876;51.738;10.050;2023-01-26T09:37:12;23.33;;;10.40;;
5702;SDS011;2876;51.738;10.050;2023-01-26T09:56:27;30.03;;;10.87;;
5702;SDS011;2876;51.738;10.050;2023-01-26T10:09:24;40.80;;;14.30;;
5702;SDS011;2876;51.738;10.050;2023-01-26T10:15:35;40.93;;;15.87;;
5702;SDS011;2876;51.738;10.050;2023-01-26T10:21:42;34.13;;;15.20;;
5702;SDS011;2876;51.738;10.050;2023-01-26T10:27:47;43.23;;;15.40;;
5702;SDS011;2876;51.738;10.050;2023-01-26T10:33:54;41.77;;;15.67;;
5702;SDS011;2876;51.738;10.050;2023-01-26T10:40:11;45.00;;;15.57;;
5702;SDS011;2876;51.738;10.050;2023-01-26T10:46:22;44.20;;;15.43;;
5702;SDS011;2876;51.738;10.050;2023-01-26T10:52:36;49.53;;;15.77;;
5702;SDS011;2876;51.738;10.050;2023-01-26T11:05:01;34.60;;;14.30;;
5702;SDS011;2876;51.738;10.050;2023-01-26T11:11:33;36.67;;;13.80;;
5702;SDS011;2876;51.738;10.050;2023-01-26T11:17:36;36.50;;;13.80;;
5702;SDS011;2876;51.738;10.050;2023-01-26T11:50:14;51.77;;;18.70;;
5702;SDS011;2876;51.738;10.050;2023-01-26T12:02:58;46.33;;;18.80;;
5702;SDS011;2876;51.738;10.050;2023-01-26T12:09:12;44.43;;;19.90;;
5702;SDS011;2876;51.738;10.050;2023-01-26T12:15:24;50.47;;;21.03;;
5702;SDS011;2876;51.738;10.050;2023-01-26T12:21:37;50.17;;;19.73;;
5702;SDS011;2876;51.738;10.050;2023-01-26T12:28:02;79.90;;;34.07;;
5702;SDS011;2876;51.738;10.050;2023-01-26T12:34:23;56.53;;;23.07;;
5702;SDS011;2876;51.738;10.050;2023-01-26T12:40:42;44.57;;;21.07;;
5702;SDS011;2876;51.738;10.050;2023-01-26T12:47:20;53.33;;;23.27;;
5702;SDS011;2876;51.738;10.050;2023-01-26T13:00:37;49.27;;;20.70;;
5702;SDS011;2876;51.738;10.050;2023-01-26T13:06:40;49.67;;;21.57;;
5702;SDS011;2876;51.738;10.050;2023-01-26T13:18:54;55.13;;;23.57;;
5702;SDS011;2876;51.738;10.050;2023-01-26T13:24:58;57.30;;;23.57;;
5702;SDS011;2876;51.738;10.050;2023-01-26T13:31:32;53.60;;;22.43;;
5702;SDS011;2876;51.738;10.050;2023-01-26T13:44:36;87.83;;;33.07;;
5702;SDS011;2876;51.738;10.050;2023-01-26T13:50:46;104.57;;;38.30;;
5702;SDS011;2876;51.738;10.050;2023-01-26T13:56:59;112.90;;;43.47;;
5702;SDS011;2876;51.738;10.050;2023-01-26T14:03:20;63.50;;;27.43;;
5702;SDS011;2876;51.738;10.050;2023-01-26T14:09:24;55.43;;;23.93;;
5702;SDS011;2876;51.738;10.050;2023-01-26T14:15:32;61.17;;;24.10;;
5702;SDS011;2876;51.738;10.050;2023-01-26T14:21:51;71.63;;;25.77;;
5702;SDS011;2876;51.738;10.050;2023-01-26T14:28:01;59.27;;;23.17;;
5702;SDS011;2876;51.738;10.050;2023-01-26T14:34:07;67.50;;;26.60;;
5702;SDS011;2876;51.738;10.050;2023-01-26T14:46:23;76.93;;;29.70;;
5702;SDS011;2876;51.738;10.050;2023-01-26T14:52:31;59.73;;;27.93;;
5702;SDS011;2876;51.738;10.050;2023-01-26T14:58:40;73.80;;;27.33;;
5702;SDS011;2876;51.738;10.050;2023-01-26T15:10:59;73.37;;;26.70;;
5702;SDS011;2876;51.738;10.050;2023-01-26T15:17:25;72.93;;;29.10;;
5702;SDS011;2876;51.738;10.050;2023-01-26T15:23:41;67.73;;;25.40;;
5702;SDS011;2876;51.738;10.050;2023-01-26T15:29:56;54.00;;;25.63;;
5702;SDS011;2876;51.738;10.050;2023-01-26T15:36:00;57.53;;;21.97;;
5702;SDS011;2876;51.738;10.050;2023-01-26T15:48:15;52.23;;;20.70;;
5702;SDS011;2876;51.738;10.050;2023-01-26T15:54:17;45.77;;;17.77;;
5702;SDS011;2876;51.738;10.050;2023-01-26T16:00:19;37.47;;;17.87;;
5702;SDS011;2876;51.738;10.050;2023-01-26T16:06:26;35.77;;;17.87;;
5702;SDS011;2876;51.738;10.050;2023-01-26T16:12:31;40.53;;;17.53;;
5702;SDS011;2876;51.738;10.050;2023-01-26T16:18:33;37.33;;;15.90;;
5702;SDS011;2876;51.738;10.050;2023-01-26T16:24:35;37.33;;;16.50;;
5702;SDS011;2876;51.738;10.050;2023-01-26T16:30:38;28.37;;;14.13;;
5702;SDS011;2876;51.738;10.050;2023-01-26T16:36:42;29.30;;;13.40;;
5702;SDS011;2876;51.738;10.050;2023-01-26T16:42:45;58.40;;;24.13;;
5702;SDS011;2876;51.738;10.050;2023-01-26T16:48:51;45.43;;;19.63;;
5702;SDS011;2876;51.738;10.050;2023-01-26T16:54:53;29.77;;;14.23;;
5702;SDS011;2876;51.738;10.050;2023-01-26T17:00:55;23.00;;;11.87;;
5702;SDS011;2876;51.738;10.050;2023-01-26T17:06:57;22.83;;;11.87;;
5702;SDS011;2876;51.738;10.050;2023-01-26T17:12:59;20.90;;;10.67;;
5702;SDS011;2876;51.738;10.050;2023-01-26T17:19:01;20.90;;;10.27;;
5702;SDS011;2876;51.738;10.050;2023-01-26T17:25:03;17.90;;;9.73;;
5702;SDS011;2876;51.738;10.050;2023-01-26T17:31:11;17.17;;;8.97;;
5702;SDS011;2876;51.738;10.050;2023-01-26T17:37:18;14.87;;;9.30;;
5702;SDS011;2876;51.738;10.050;2023-01-26T17:43:21;16.03;;;9.30;;
5702;SDS011;2876;51.738;10.050;2023-01-26T17:49:23;17.00;;;9.20;;
5702;SDS011;2876;51.738;10.050;2023-01-26T17:55:25;18.07;;;9.23;;
5702;SDS011;2876;51.738;10.050;2023-01-26T18:01:27;22.33;;;11.67;;
5702;SDS011;2876;51.738;10.050;2023-01-26T18:07:29;23.90;;;14.63;;
5702;SDS011;2876;51.738;10.050;2023-01-26T18:13:31;17.43;;;9.87;;
5702;SDS011;2876;51.738;10.050;2023-01-26T18:19:34;18.37;;;10.00;;
5702;SDS011;2876;51.738;10.050;2023-01-26T18:25:36;16.77;;;10.40;;
5702;SDS011;2876;51.738;10.050;2023-01-26T18:31:38;25.40;;;13.77;;
5702;SDS011;2876;51.738;10.050;2023-01-26T18:37:41;18.93;;;9.00;;
5702;SDS011;2876;51.738;10.050;2023-01-26T18:43:43;16.80;;;9.07;;
5702;SDS011;2876;51.738;10.050;2023-01-26T18:49:47;13.80;;;9.10;;
5702;SDS011;2876;51.738;10.050;2023-01-26T18:55:49;25.87;;;12.90;;
5702;SDS011;2876;51.738;10.050;2023-01-26T19:01:55;17.07;;;9.20;;
5702;SDS011;2876;51.738;10.050;2023-01-26T19:08:00;12.57;;;7.67;;
5702;SDS011;2876;51.738;10.050;2023-01-26T19:14:10;13.23;;;8.33;;
5702;SDS011;2876;51.738;10.050;2023-01-26T19:20:12;13.07;;;7.63;;
5702;SDS011;2876;51.738;10.050;2023-01-26T19:26:14;13.57;;;8.20;;
5702;SDS011;2876;51.738;10.050;2023-01-26T19:32:19;16.40;;;9.87;;
5702;SDS011;2876;51.738;10.050;2023-01-26T19:38:21;23.40;;;12.27;;
5702;SDS011;2876;51.738;10.050;2023-01-26T19:44:23;18.90;;;11.83;;
5702;SDS011;2876;51.738;10.050;2023-01-26T19:50:25;12.50;;;8.10;;
5702;SDS011;2876;51.738;10.050;2023-01-26T19:56:28;10.80;;;7.07;;
5702;SDS011;2876;51.738;10.050;2023-01-26T20:02:33;12.23;;;8.03;;
5702;SDS011;2876;51.738;10.050;2023-01-26T20:08:35;13.40;;;8.17;;
5702;SDS011;2876;51.738;10.050;2023-01-26T20:14:37;12.67;;;7.77;;
5702;SDS011;2876;51.738;10.050;2023-01-26T20:20:39;16.50;;;8.87;;
5702;SDS011;2876;51.738;10.050;2023-01-26T20:26:41;28.23;;;12.17;;
5702;SDS011;2876;51.738;10.050;2023-01-26T20:32:44;17.70;;;9.07;;
5702;SDS011;2876;51.738;10.050;2023-01-26T20:38:47;16.43;;;8.60;;
5702;SDS011;2876;51.738;10.050;2023-01-26T20:44:49;10.50;;;5.43;;
5702;SDS011;2876;51.738;10.050;2023-01-26T20:50:51;5.57;;;4.13;;
5702;SDS011;2876;51.738;10.050;2023-01-26T20:56:53;6.50;;;4.23;;
5702;SDS011;2876;51.738;10.050;2023-01-26T21:02:55;10.70;;;6.03;;
5702;SDS011;2876;51.738;10.050;2023-01-26T21:08:57;7.63;;;4.70;;
5702;SDS011;2876;51.738;10.050;2023-01-26T21:15:01;10.60;;;5.40;;
5702;SDS011;2876;51.738;10.050;2023-01-26T21:21:07;20.27;;;10.43;;
5702;SDS011;2876;51.738;10.050;2023-01-26T21:27:12;6.43;;;4.83;;
5702;SDS011;2876;51.738;10.050;2023-01-26T21:33:15;6.03;;;4.10;;
5702;SDS011;2876;51.738;10.050;2023-01-26T21:39:17;3.63;;;3.33;;
5702;SDS011;2876;51.738;10.050;2023-01-26T21:45:22;4.77;;;3.23;;
5702;SDS011;2876;51.738;10.050;2023-01-26T21:51:42;5.87;;;4.80;;
5702;SDS011;2876;51.738;10.050;2023-01-26T21:58:03;5.90;;;4.03;;
5702;SDS011;2876;51.738;10.050;2023-01-26T22:04:25;5.57;;;3.60;;
5702;SDS011;2876;51.738;10.050;2023-01-26T22:10:30;8.40;;;5.10;;
5702;SDS011;2876;51.738;10.050;2023-01-26T22:16:32;7.10;;;4.50;;
5702;SDS011;2876;51.738;10.050;2023-01-26T22:22:34;7.20;;;4.60;;
5702;SDS011;2876;51.738;10.050;2023-01-26T22:28:36;8.87;;;5.40;;
5702;SDS011;2876;51.738;10.050;2023-01-26T22:34:38;4.93;;;3.83;;
5702;SDS011;2876;51.738;10.050;2023-01-26T22:40:40;3.67;;;3.10;;
5702;SDS011;2876;51.738;10.050;2023-01-26T22:46:42;3.33;;;2.80;;
5702;SDS011;2876;51.738;10.050;2023-01-26T22:52:44;5.20;;;3.50;;
5702;SDS011;2876;51.738;10.050;2023-01-26T22:58:49;5.00;;;2.60;;
5702;SDS011;2876;51.738;10.050;2023-01-26T23:05:00;4.20;;;2.80;;
5702;SDS011;2876;51.738;10.050;2023-01-26T23:11:03;2.70;;;2.23;;
5702;SDS011;2876;51.738;10.050;2023-01-26T23:17:14;2.47;;;2.27;;
5702;SDS011;2876;51.738;10.050;2023-01-26T23:23:16;2.83;;;2.53;;
5702;SDS011;2876;51.738;10.050;2023-01-26T23:29:19;2.77;;;2.57;;
5702;SDS011;2876;51.738;10.050;2023-01-26T23:35:21;2.27;;;2.07;;
5702;SDS011;2876;51.738;10.050;2023-01-26T23:41:26;2.90;;;2.30;;
5702;SDS011;2876;51.738;10.050;2023-01-26T23:47:28;2.20;;;2.07;;
5702;SDS011;2876;51.738;10.050;2023-01-26T23:53:31;2.77;;;2.43;;
5702;SDS011;2876;51.738;10.050;2023-01-26T23:59:33;3.00;;;2.33;;
